createdAt,value
2019-05-10T00:00:23.100Z,97.57
2019-05-10T00:03:12.007Z,97.73
2019-05-10T00:06:00.964Z,98.17
2019-05-10T00:08:46.907Z,98.08
2019-05-10T00:11:22.049Z,98.08
2019-05-10T00:14:10.953Z,97.40
2019-05-10T00:16:42.252Z,97.56
2019-05-10T00:19:13.222Z,96.96
2019-05-10T00:21:44.423Z,96.92
2019-05-10T00:24:15.391Z,96.51
2019-05-10T00:26:45.570Z,96.30
2019-05-10T00:29:16.741Z,96.00
2019-05-10T00:31:47.697Z,96.35
2019-05-10T00:34:18.784Z,96.20
2019-05-10T00:36:49.680Z,96.27
2019-05-10T00:39:20.805Z,95.70
2019-05-10T00:41:52.015Z,95.50
2019-05-10T00:44:23.073Z,95.25
2019-05-10T00:46:54.046Z,96.06
2019-05-10T00:49:25.229Z,97.03
2019-05-10T00:51:56.139Z,98.06
2019-05-10T00:54:27.395Z,99.17
2019-05-10T00:56:58.293Z,98.76
2019-05-10T00:59:28.474Z,98.88
2019-05-10T01:01:59.722Z,99.64
2019-05-10T01:04:30.587Z,100.00
2019-05-10T01:07:01.728Z,100.00
2019-05-10T01:09:32.620Z,100.00
2019-05-10T01:12:03.767Z,100.00
2019-05-10T01:14:34.820Z,100.00
2019-05-10T01:17:06.091Z,100.00
2019-05-10T01:19:37.037Z,100.00
2019-05-10T01:22:08.290Z,100.00
2019-05-10T01:24:39.243Z,100.00
2019-05-10T01:27:10.513Z,100.00
2019-05-10T01:29:41.480Z,100.00
2019-05-10T01:32:11.680Z,100.00
2019-05-10T01:34:42.745Z,100.00
2019-05-10T01:37:13.897Z,100.00
2019-05-10T01:39:45.018Z,100.00
2019-05-10T01:42:16.011Z,100.00
2019-05-10T01:44:47.322Z,100.00
2019-05-10T01:47:18.250Z,100.00
2019-05-10T01:49:49.372Z,100.00
2019-05-10T01:52:20.256Z,100.00
2019-05-10T01:54:51.443Z,100.00
2019-05-10T01:57:22.398Z,100.00
2019-05-10T01:59:53.482Z,100.00
2019-05-10T02:02:24.448Z,100.00
2019-05-10T02:04:54.578Z,100.00
2019-05-10T02:07:25.690Z,100.00
2019-05-10T02:09:56.595Z,100.00
2019-05-10T02:12:27.714Z,100.00
2019-05-10T02:14:58.634Z,100.00
2019-05-10T02:17:29.816Z,100.00
2019-05-10T02:20:00.807Z,100.00
2019-05-10T02:22:32.040Z,100.00
2019-05-10T02:25:02.992Z,100.00
2019-05-10T02:27:34.086Z,100.00
2019-05-10T02:30:06.629Z,100.00
2019-05-10T02:32:37.735Z,100.00
2019-05-10T02:35:09.007Z,100.00
2019-05-10T02:37:40.795Z,100.00
2019-05-10T02:40:11.950Z,100.00
2019-05-10T02:42:41.975Z,100.00
2019-05-10T02:45:13.178Z,100.00
2019-05-10T02:47:44.171Z,100.00
2019-05-10T02:50:15.418Z,100.00
2019-05-10T02:52:46.404Z,100.00
2019-05-10T02:55:17.618Z,100.00
2019-05-10T02:57:48.979Z,100.00
2019-05-10T03:00:20.359Z,100.00
2019-05-10T03:02:52.694Z,100.00
2019-05-10T03:05:27.063Z,100.00
2019-05-10T03:07:58.997Z,100.00
2019-05-10T03:10:32.581Z,100.00
2019-05-10T03:13:04.238Z,100.00
2019-05-10T03:15:36.663Z,100.00
2019-05-10T03:18:07.800Z,100.00
2019-05-10T03:20:38.738Z,100.00
2019-05-10T03:23:10.891Z,100.00
2019-05-10T03:25:41.766Z,100.00
2019-05-10T03:28:12.928Z,100.00
2019-05-10T03:30:43.873Z,100.00
2019-05-10T03:33:15.226Z,100.00
2019-05-10T03:35:46.653Z,100.00
2019-05-10T03:38:17.848Z,100.00
2019-05-10T03:40:48.740Z,100.00
2019-05-10T03:43:19.911Z,100.00
2019-05-10T03:45:50.863Z,100.00
2019-05-10T03:48:21.078Z,100.00
2019-05-10T03:50:52.219Z,100.00
2019-05-10T03:53:23.210Z,100.00
2019-05-10T03:55:54.334Z,100.00
2019-05-10T03:58:25.502Z,100.00
2019-05-10T04:00:56.576Z,100.00
2019-05-10T04:03:27.572Z,100.00
2019-05-10T04:05:58.663Z,100.00
2019-05-10T04:08:29.562Z,100.00
2019-05-10T04:11:00.867Z,100.00
2019-05-10T04:13:31.894Z,100.00
2019-05-10T04:16:03.183Z,100.00
2019-05-10T04:18:34.207Z,100.00
2019-05-10T04:21:06.727Z,100.00
2019-05-10T04:23:37.724Z,100.00
2019-05-10T04:26:07.850Z,100.00
2019-05-10T04:28:39.042Z,100.00
2019-05-10T04:31:09.892Z,100.00
2019-05-10T04:33:44.120Z,100.00
2019-05-10T04:36:15.189Z,100.00
2019-05-10T04:38:49.187Z,100.00
2019-05-10T04:41:20.261Z,100.00
2019-05-10T04:43:51.567Z,100.00
2019-05-10T04:46:24.337Z,100.00
2019-05-10T04:48:55.415Z,100.00
2019-05-10T04:51:26.357Z,100.00
2019-05-10T04:53:57.680Z,100.00
2019-05-10T04:56:33.175Z,100.00
2019-05-10T04:59:06.332Z,100.00
2019-05-10T05:01:41.930Z,100.00
2019-05-10T05:04:12.182Z,100.00
2019-05-10T05:06:43.232Z,100.00
2019-05-10T05:09:14.137Z,100.00
2019-05-10T05:11:45.361Z,100.00
2019-05-10T05:14:16.344Z,100.00
2019-05-10T05:16:47.489Z,100.00
2019-05-10T05:19:18.416Z,100.00
2019-05-10T05:21:49.590Z,100.00
2019-05-10T05:24:22.906Z,99.73
2019-05-10T05:26:53.354Z,99.42
2019-05-10T05:29:24.374Z,99.17
2019-05-10T05:32:05.862Z,98.91
2019-05-10T05:34:40.703Z,98.99
2019-05-10T05:37:10.827Z,98.73
2019-05-10T05:39:41.960Z,98.67
2019-05-10T05:42:13.007Z,97.13
2019-05-10T05:44:44.515Z,97.33
2019-05-10T05:47:15.777Z,97.35
2019-05-10T05:49:46.906Z,96.90
2019-05-10T05:52:17.831Z,96.15
2019-05-10T05:54:52.861Z,96.41
2019-05-10T05:57:22.138Z,96.06
2019-05-10T05:59:57.619Z,96.11
2019-05-10T06:02:27.313Z,97.08
2019-05-10T06:04:58.468Z,96.45
2019-05-10T06:07:31.256Z,96.11
2019-05-10T06:10:02.891Z,96.23
2019-05-10T06:12:33.934Z,96.05
2019-05-10T06:15:04.826Z,97.19
2019-05-10T06:17:35.926Z,97.88
2019-05-10T06:20:08.578Z,98.66
2019-05-10T06:22:44.003Z,98.10
2019-05-10T06:25:12.465Z,97.84
2019-05-10T06:27:44.861Z,97.59
2019-05-10T06:30:16.040Z,92.08
2019-05-10T06:32:47.224Z,87.33
2019-05-10T06:35:19.420Z,80.19
2019-05-10T06:37:51.134Z,75.26
2019-05-10T06:40:32.446Z,73.03
2019-05-10T06:42:55.434Z,70.91
2019-05-10T06:45:26.480Z,70.58
2019-05-10T06:47:56.510Z,72.23
2019-05-10T06:50:29.950Z,72.08
2019-05-10T06:53:06.655Z,76.75
2019-05-10T06:55:33.185Z,76.14
2019-05-10T06:58:04.456Z,76.81
2019-05-10T07:00:37.910Z,77.50
2019-05-10T07:03:08.178Z,72.70
2019-05-10T07:05:39.238Z,70.91
2019-05-10T07:08:17.558Z,70.40
2019-05-10T07:10:43.152Z,70.23
2019-05-10T07:13:14.064Z,73.20
2019-05-10T07:15:45.378Z,73.62
2019-05-10T07:18:22.554Z,72.14
2019-05-10T07:20:49.382Z,73.08
2019-05-10T07:23:20.289Z,70.97
2019-05-10T07:25:50.418Z,67.03
2019-05-10T07:28:21.747Z,67.27
2019-05-10T07:30:52.636Z,69.01
2019-05-10T07:33:23.770Z,66.89
2019-05-10T07:35:54.717Z,70.17
2019-05-10T07:38:31.051Z,70.98
2019-05-10T07:40:58.513Z,68.30
2019-05-10T07:43:29.763Z,68.91
2019-05-10T07:46:06.224Z,66.00
2019-05-10T07:48:33.420Z,63.90
2019-05-10T07:51:04.459Z,66.11
2019-05-10T07:53:35.596Z,63.13
2019-05-10T07:56:08.013Z,62.92
2019-05-10T07:58:43.331Z,58.67
2019-05-10T08:01:11.197Z,59.50
2019-05-10T08:03:48.213Z,60.25
2019-05-10T08:06:15.623Z,59.95
2019-05-10T08:08:49.484Z,57.14
2019-05-10T08:11:19.868Z,59.79
2019-05-10T08:13:51.864Z,56.49
2019-05-10T08:16:26.476Z,57.16
2019-05-10T08:19:01.046Z,58.01
2019-05-10T08:21:32.234Z,58.96
2019-05-10T08:24:05.138Z,57.12
2019-05-10T08:26:36.193Z,56.89
2019-05-10T08:29:12.310Z,55.48
2019-05-10T08:31:50.436Z,57.21
2019-05-10T08:34:13.725Z,56.31
2019-05-10T08:36:47.580Z,57.11
2019-05-10T08:39:16.689Z,55.38
2019-05-10T08:42:01.335Z,55.63
2019-05-10T08:44:21.784Z,56.63
2019-05-10T08:46:53.171Z,56.71
2019-05-10T08:49:31.024Z,59.23
2019-05-10T08:51:56.916Z,54.32
2019-05-10T08:54:28.071Z,51.08
2019-05-10T08:57:01.065Z,51.90
2019-05-10T08:59:33.827Z,53.04
2019-05-10T09:02:04.644Z,53.61
2019-05-10T09:04:43.630Z,50.81
2019-05-10T09:07:08.391Z,51.93
2019-05-10T09:09:49.725Z,52.61
2019-05-10T09:12:15.669Z,55.36
2019-05-10T09:14:48.613Z,54.15
2019-05-10T09:17:23.541Z,57.04
2019-05-10T09:19:51.885Z,53.11
2019-05-10T09:22:24.086Z,51.86
2019-05-10T09:24:55.812Z,51.32
2019-05-10T09:27:29.133Z,50.71
2019-05-10T09:29:59.694Z,51.70
2019-05-10T09:32:33.402Z,52.47
2019-05-10T09:35:07.672Z,51.37
2019-05-10T09:37:36.718Z,49.68
2019-05-10T09:40:09.946Z,48.43
2019-05-10T09:42:43.619Z,48.67
2019-05-10T09:45:13.901Z,49.88
2019-05-10T09:47:44.077Z,51.06
2019-05-10T09:50:15.801Z,50.68
2019-05-10T09:52:46.806Z,47.48
2019-05-10T09:55:18.118Z,48.73
2019-05-10T09:57:49.017Z,49.04
2019-05-10T10:00:23.098Z,48.43
2019-05-10T10:03:01.614Z,47.95
2019-05-10T10:05:31.011Z,47.43
2019-05-10T10:08:03.569Z,48.19
2019-05-10T10:10:37.185Z,48.57
2019-05-10T10:13:13.253Z,48.64
2019-05-10T10:15:40.429Z,47.47
2019-05-10T10:18:12.715Z,47.91
2019-05-10T10:20:45.437Z,49.39
2019-05-10T10:23:17.379Z,47.28
2019-05-10T10:25:48.380Z,47.82
2019-05-10T10:28:22.543Z,46.19
2019-05-10T10:30:59.068Z,45.97
2019-05-10T10:33:28.125Z,48.58
2019-05-10T10:36:04.969Z,48.63
2019-05-10T10:38:31.411Z,48.43
2019-05-10T10:41:02.602Z,46.31
2019-05-10T10:43:33.786Z,47.11
2019-05-10T10:46:11.900Z,45.92
2019-05-10T10:48:37.634Z,48.59
2019-05-10T10:51:08.572Z,47.93
2019-05-10T10:53:39.821Z,48.70
2019-05-10T10:56:10.725Z,48.14
2019-05-10T10:58:42.035Z,49.06
2019-05-10T11:01:23.610Z,50.08
2019-05-10T11:03:44.669Z,50.47
2019-05-10T11:06:15.873Z,47.27
2019-05-10T11:08:46.835Z,48.11
2019-05-10T11:11:17.971Z,46.72
2019-05-10T11:13:57.800Z,46.35
2019-05-10T11:16:22.020Z,47.54
2019-05-10T11:18:54.665Z,43.88
2019-05-10T11:21:28.791Z,42.08
2019-05-10T11:24:01.261Z,45.96
2019-05-10T11:26:34.957Z,48.27
2019-05-10T11:29:04.340Z,49.97
2019-05-10T11:31:35.596Z,49.65
2019-05-10T11:34:06.701Z,47.21
2019-05-10T11:36:40.447Z,44.75
2019-05-10T11:39:25.668Z,40.57
2019-05-10T11:41:45.248Z,40.42
2019-05-10T11:44:17.982Z,42.80
2019-05-10T11:46:50.774Z,44.46
2019-05-10T11:49:22.052Z,42.10
2019-05-10T11:51:54.936Z,42.15
2019-05-10T11:54:25.833Z,41.57
2019-05-10T11:56:58.425Z,40.03
2019-05-10T11:59:33.730Z,39.46
2019-05-10T12:02:09.005Z,40.26
2019-05-10T12:04:39.374Z,38.85
2019-05-10T12:07:13.040Z,38.96
2019-05-10T12:09:44.424Z,39.86
2019-05-10T12:12:15.404Z,39.58
2019-05-10T12:14:46.874Z,37.50
2019-05-10T12:17:18.141Z,38.08
2019-05-10T12:19:55.482Z,38.84
2019-05-10T12:22:32.124Z,37.58
2019-05-10T12:25:27.237Z,37.50
2019-05-10T12:27:44.247Z,41.16
2019-05-10T12:30:11.670Z,40.90
2019-05-10T12:32:55.695Z,39.38
2019-05-10T12:35:15.747Z,37.41
2019-05-10T12:37:53.131Z,36.41
2019-05-10T12:40:19.728Z,36.41
2019-05-10T12:42:50.920Z,38.71
2019-05-10T12:45:23.349Z,40.10
2019-05-10T12:47:54.616Z,37.82
2019-05-10T12:50:25.636Z,38.59
2019-05-10T12:53:14.200Z,41.11
2019-05-10T12:55:29.457Z,41.28
2019-05-10T12:58:01.401Z,41.63
2019-05-10T13:00:32.752Z,42.99
2019-05-10T13:03:12.085Z,43.23
2019-05-10T13:05:51.319Z,44.49
2019-05-10T13:08:09.168Z,45.55
2019-05-10T13:10:43.262Z,45.57
2019-05-10T13:13:17.652Z,46.92
2019-05-10T13:15:46.472Z,46.42
2019-05-10T13:18:17.453Z,46.89
2019-05-10T13:20:48.691Z,47.19
2019-05-10T13:23:19.616Z,47.99
2019-05-10T13:25:50.678Z,47.88
2019-05-10T13:28:21.786Z,49.55
2019-05-10T13:30:52.071Z,50.05
2019-05-10T13:33:29.144Z,50.14
2019-05-10T13:35:57.045Z,50.38
2019-05-10T13:38:28.988Z,50.86
2019-05-10T13:41:02.747Z,51.74
2019-05-10T13:43:34.059Z,51.90
2019-05-10T13:46:05.101Z,50.28
2019-05-10T13:48:36.344Z,50.87
2019-05-10T13:51:07.359Z,50.78
2019-05-10T13:53:38.740Z,50.72
2019-05-10T13:56:09.623Z,47.95
2019-05-10T13:58:40.735Z,47.11
2019-05-10T14:01:13.169Z,42.47
2019-05-10T14:03:48.726Z,42.45
2019-05-10T14:06:17.238Z,42.10
2019-05-10T14:08:48.184Z,42.96
2019-05-10T14:11:20.065Z,41.01
2019-05-10T14:13:51.112Z,39.69
2019-05-10T14:16:22.724Z,37.86
2019-05-10T14:19:09.822Z,39.17
2019-05-10T14:21:40.199Z,40.41
2019-05-10T14:24:15.281Z,40.72
2019-05-10T14:26:44.050Z,36.95
2019-05-10T14:29:14.997Z,38.65
2019-05-10T14:31:46.248Z,37.76
2019-05-10T14:34:17.144Z,38.98
2019-05-10T14:36:48.419Z,40.15
2019-05-10T14:39:19.406Z,39.38
2019-05-10T14:41:52.412Z,40.43
2019-05-10T14:44:23.613Z,41.37
2019-05-10T14:46:53.628Z,42.73
2019-05-10T14:49:24.936Z,44.21
2019-05-10T14:51:59.424Z,45.34
2019-05-10T14:54:42.681Z,44.59
2019-05-10T14:57:01.466Z,43.98
2019-05-10T14:59:32.702Z,41.46
2019-05-10T15:02:03.679Z,39.70
2019-05-10T15:04:50.253Z,38.95
2019-05-10T15:07:08.715Z,40.07
2019-05-10T15:09:40.307Z,41.77
2019-05-10T15:12:16.445Z,41.66
2019-05-10T15:14:44.173Z,42.75
2019-05-10T15:17:15.081Z,42.56
2019-05-10T15:19:55.798Z,43.51
2019-05-10T15:22:22.889Z,43.33
2019-05-10T15:24:49.836Z,43.84
2019-05-10T15:27:22.062Z,44.58
2019-05-10T15:29:58.495Z,44.41
2019-05-10T15:32:26.578Z,44.64
2019-05-10T15:35:06.500Z,45.53
2019-05-10T15:37:30.297Z,45.96
2019-05-10T15:40:06.100Z,46.58
2019-05-10T15:42:36.076Z,46.93
2019-05-10T15:45:12.378Z,47.20
2019-05-10T15:47:51.345Z,47.88
2019-05-10T15:50:16.862Z,47.77
2019-05-10T15:52:48.780Z,48.93
2019-05-10T15:55:26.792Z,47.56
2019-05-10T15:57:57.756Z,48.09
2019-05-10T16:00:31.492Z,49.42
2019-05-10T16:02:57.487Z,48.76
2019-05-10T16:05:42.519Z,48.50
2019-05-10T16:08:01.140Z,49.15
2019-05-10T16:10:38.812Z,49.93
2019-05-10T16:13:05.107Z,50.07
2019-05-10T16:15:38.190Z,51.28
2019-05-10T16:18:12.127Z,51.75
2019-05-10T16:20:43.468Z,49.73
2019-05-10T16:23:17.486Z,49.48
2019-05-10T16:25:51.472Z,50.51
2019-05-10T16:28:22.981Z,51.58
2019-05-10T16:30:54.294Z,52.78
2019-05-10T16:33:25.236Z,52.31
2019-05-10T16:35:55.431Z,52.96
2019-05-10T16:38:26.582Z,52.90
2019-05-10T16:41:00.200Z,53.79
2019-05-10T16:43:30.342Z,54.76
2019-05-10T16:46:01.277Z,54.36
2019-05-10T16:48:32.487Z,55.04
2019-05-10T16:51:09.099Z,55.52
2019-05-10T16:53:37.814Z,56.39
2019-05-10T16:56:13.430Z,57.88
2019-05-10T16:58:41.841Z,56.75
2019-05-10T17:01:12.735Z,57.29
2019-05-10T17:03:43.796Z,56.98
2019-05-10T17:06:14.696Z,56.49
2019-05-10T17:08:48.689Z,57.23
2019-05-10T17:11:21.197Z,57.23
2019-05-10T17:13:55.708Z,56.38
2019-05-10T17:16:30.063Z,56.69
2019-05-10T17:19:06.456Z,57.45
2019-05-10T17:21:39.070Z,57.18
2019-05-10T17:24:12.895Z,57.19
2019-05-10T17:26:45.725Z,57.01
2019-05-10T17:29:16.750Z,56.16
2019-05-10T17:31:49.693Z,57.54
2019-05-10T17:34:29.445Z,55.87
2019-05-10T17:36:59.789Z,55.84
2019-05-10T17:39:32.001Z,55.01
2019-05-10T17:42:05.028Z,54.72
2019-05-10T17:44:36.196Z,54.82
2019-05-10T17:47:07.997Z,54.38
2019-05-10T17:49:38.932Z,54.58
2019-05-10T17:52:09.079Z,54.90
2019-05-10T17:54:40.993Z,55.02
2019-05-10T17:57:16.791Z,56.31
2019-05-10T17:59:46.841Z,55.23
2019-05-10T18:02:19.161Z,56.82
2019-05-10T18:04:50.388Z,55.59
2019-05-10T18:07:22.862Z,55.70
2019-05-10T18:09:55.553Z,55.93
2019-05-10T18:12:27.333Z,56.26
2019-05-10T18:14:58.816Z,56.07
2019-05-10T18:17:29.705Z,56.78
2019-05-10T18:20:02.226Z,57.53
2019-05-10T18:22:42.231Z,58.20
2019-05-10T18:25:07.410Z,58.46
2019-05-10T18:27:38.339Z,59.03
2019-05-10T18:30:09.036Z,60.33
2019-05-10T18:32:40.165Z,59.92
2019-05-10T18:35:14.808Z,59.95
2019-05-10T18:37:44.472Z,60.19
2019-05-10T18:40:25.103Z,60.55
2019-05-10T18:43:04.131Z,60.85
2019-05-10T18:45:39.089Z,61.37
2019-05-10T18:48:15.941Z,61.76
2019-05-10T18:50:47.552Z,62.12
2019-05-10T18:53:20.768Z,62.58
2019-05-10T18:55:53.221Z,62.49
2019-05-10T19:01:03.991Z,64.10
2019-05-10T19:03:43.401Z,65.05
2019-05-10T19:06:19.239Z,65.87
2019-05-10T19:08:55.736Z,66.85
2019-05-10T19:11:38.879Z,66.60
2019-05-10T19:14:09.044Z,67.03
2019-05-10T19:16:40.094Z,67.39
2019-05-10T19:19:13.541Z,67.82
2019-05-10T19:22:18.235Z,67.82
2019-05-10T19:24:56.192Z,67.87
2019-05-10T19:27:25.472Z,67.91
2019-05-10T19:29:57.336Z,68.56
2019-05-10T19:32:30.306Z,69.78
2019-05-10T19:35:01.223Z,70.09
2019-05-10T19:37:34.754Z,70.04
2019-05-10T19:40:08.556Z,70.55
2019-05-10T19:42:43.073Z,70.48
2019-05-10T19:45:18.994Z,71.18
2019-05-10T19:47:49.806Z,71.72
2019-05-10T19:50:18.680Z,71.53
2019-05-10T19:52:49.793Z,71.60
2019-05-10T19:55:23.532Z,72.23
2019-05-10T19:57:56.513Z,72.67
2019-05-10T20:00:28.975Z,74.09
2019-05-10T20:02:59.089Z,74.33
2019-05-10T20:05:30.407Z,74.63
2019-05-10T20:08:01.421Z,75.27
2019-05-10T20:10:32.495Z,75.54
2019-05-10T20:13:03.428Z,75.74
2019-05-10T20:15:34.576Z,76.32
2019-05-10T20:18:06.116Z,76.61
2019-05-10T20:20:37.855Z,78.30
2019-05-10T20:23:08.763Z,78.86
2019-05-10T20:25:50.963Z,79.10
2019-05-10T20:28:26.909Z,80.06
2019-05-10T20:30:58.072Z,80.75
2019-05-10T20:33:28.951Z,80.96
2019-05-10T20:36:01.835Z,81.86
2019-05-10T20:38:32.740Z,82.97
2019-05-10T20:41:02.879Z,83.84
2019-05-10T20:43:34.152Z,84.04
2019-05-10T20:46:07.132Z,84.28
2019-05-10T20:48:37.776Z,84.67
2019-05-10T20:51:08.638Z,85.28
2019-05-10T20:53:40.689Z,85.57
2019-05-10T20:56:11.590Z,85.72
2019-05-10T20:58:42.724Z,88.14
2019-05-10T21:01:13.799Z,89.97
2019-05-10T21:03:44.920Z,88.57
2019-05-10T21:06:18.821Z,87.48
2019-05-10T21:08:49.834Z,87.09
2019-05-10T21:11:20.902Z,86.57
2019-05-10T21:13:51.990Z,86.55
2019-05-10T21:16:24.430Z,87.35
2019-05-10T21:18:54.712Z,87.23
2019-05-10T21:21:25.798Z,86.91
2019-05-10T21:23:56.708Z,86.67
2019-05-10T21:26:27.765Z,86.37
2019-05-10T21:28:58.784Z,85.82
2019-05-10T21:31:29.807Z,87.05
2019-05-10T21:34:09.431Z,85.70
2019-05-10T21:36:33.476Z,85.18
2019-05-10T21:39:06.792Z,84.80
2019-05-10T21:41:37.988Z,84.75
2019-05-10T21:44:08.831Z,84.53
2019-05-10T21:46:39.908Z,84.16
2019-05-10T21:49:10.800Z,83.99
2019-05-10T21:51:40.912Z,83.75
2019-05-10T21:54:12.146Z,83.51
2019-05-10T21:56:42.971Z,83.38
2019-05-10T21:59:15.239Z,83.29
2019-05-10T22:01:46.205Z,83.22
2019-05-10T22:04:17.341Z,83.59
2019-05-10T22:06:50.369Z,84.16
2019-05-10T22:09:21.502Z,84.86
2019-05-10T22:11:52.372Z,85.05
2019-05-10T22:14:23.424Z,86.95
2019-05-10T22:16:54.762Z,86.91
2019-05-10T22:19:25.753Z,86.82
2019-05-10T22:21:56.589Z,86.12
2019-05-10T22:24:26.702Z,84.97
2019-05-10T22:27:00.461Z,85.62
2019-05-10T22:29:31.376Z,87.15
2019-05-10T22:32:02.591Z,87.90
2019-05-10T22:34:33.455Z,88.20
2019-05-10T22:37:04.549Z,87.96
2019-05-10T22:39:35.435Z,87.89
2019-05-10T22:42:06.777Z,87.46
2019-05-10T22:44:37.633Z,86.87
2019-05-10T22:47:08.629Z,87.10
2019-05-10T22:49:39.506Z,87.10
2019-05-10T22:52:10.630Z,86.94
2019-05-10T22:54:41.583Z,87.05
2019-05-10T22:57:11.663Z,86.98
2019-05-10T22:59:44.735Z,87.24
2019-05-10T23:02:15.695Z,87.42
2019-05-10T23:04:48.271Z,87.29
2019-05-10T23:07:19.184Z,88.37
2019-05-10T23:09:50.253Z,88.62
2019-05-10T23:12:21.153Z,88.42
2019-05-10T23:14:52.342Z,88.42
2019-05-10T23:17:23.420Z,88.38
2019-05-10T23:19:54.603Z,88.83
2019-05-10T23:22:25.498Z,89.31
2019-05-10T23:24:56.761Z,89.47
2019-05-10T23:27:27.680Z,91.80
2019-05-10T23:29:58.819Z,92.61
2019-05-10T23:32:31.215Z,92.67
2019-05-10T23:35:04.579Z,92.70
2019-05-10T23:37:35.907Z,93.12
2019-05-10T23:40:07.171Z,93.41
2019-05-10T23:42:38.142Z,93.56
2019-05-10T23:45:09.501Z,93.65
2019-05-10T23:47:40.936Z,93.76
2019-05-10T23:50:12.051Z,93.54
2019-05-10T23:52:43.161Z,93.65
2019-05-10T23:55:14.315Z,94.15
2019-05-10T23:57:45.379Z,94.18
